createdAt,value
2023-05-05T00:00:56.110Z,32.88
2023-05-05T00:03:24.711Z,32.62
2023-05-05T00:05:53.750Z,32.60
2023-05-05T00:08:21.929Z,32.47
2023-05-05T00:10:50.306Z,32.93
2023-05-05T00:13:20.323Z,32.88
2023-05-05T00:15:49.615Z,32.84
2023-05-05T00:18:18.478Z,32.89
2023-05-05T00:20:47.040Z,32.20
2023-05-05T00:23:14.473Z,32.09
2023-05-05T00:25:41.793Z,33.49
2023-05-05T00:28:09.067Z,32.88
2023-05-05T00:30:39.355Z,33.28
2023-05-05T00:33:07.372Z,32.69
2023-05-05T00:35:34.776Z,32.46
2023-05-05T00:38:01.938Z,33.22
2023-05-05T00:40:29.182Z,41.04
2023-05-05T00:42:56.473Z,39.13
2023-05-05T00:45:23.593Z,38.94
2023-05-05T00:47:54.965Z,38.57
2023-05-05T00:50:25.090Z,39.85
2023-05-05T00:52:54.779Z,39.89
2023-05-05T00:55:22.276Z,35.80
2023-05-05T00:57:50.146Z,35.39
2023-05-05T01:00:17.821Z,37.71
2023-05-05T01:02:45.247Z,38.40
2023-05-05T01:05:16.339Z,37.14
2023-05-05T01:08:02.392Z,36.15
2023-05-05T01:10:41.152Z,36.85
2023-05-05T01:13:25.753Z,36.78
2023-05-05T01:16:02.214Z,36.12
2023-05-05T01:18:36.096Z,35.56
2023-05-05T01:21:13.534Z,36.75
2023-05-05T01:24:10.753Z,36.77
2023-05-05T01:27:00.488Z,36.37
2023-05-05T01:29:48.481Z,36.15
2023-05-05T01:32:25.909Z,36.34
2023-05-05T01:35:00.248Z,35.94
2023-05-05T01:37:32.510Z,36.32
2023-05-05T01:40:06.794Z,35.96
2023-05-05T01:42:38.091Z,36.09
2023-05-05T01:45:09.442Z,36.46
2023-05-05T01:47:40.628Z,35.75
2023-05-05T01:50:11.649Z,36.24
2023-05-05T01:52:41.750Z,36.36
2023-05-05T01:55:12.711Z,36.48
2023-05-05T01:57:43.288Z,36.17
2023-05-05T02:00:12.153Z,36.71
2023-05-05T02:02:42.625Z,36.00
2023-05-05T02:05:11.589Z,35.63
2023-05-05T02:07:39.958Z,36.04
2023-05-05T02:10:10.674Z,36.70
2023-05-05T02:12:39.836Z,36.42
2023-05-05T02:15:11.146Z,35.88
2023-05-05T02:17:43.253Z,35.53
2023-05-05T02:20:14.130Z,36.44
2023-05-05T02:22:41.851Z,36.29
2023-05-05T02:25:09.913Z,36.84
2023-05-05T02:27:41.742Z,37.23
2023-05-05T02:30:12.051Z,36.34
2023-05-05T02:32:46.105Z,36.60
2023-05-05T02:35:19.836Z,36.09
2023-05-05T02:37:51.400Z,36.51
2023-05-05T02:40:24.547Z,36.08
2023-05-05T02:42:52.885Z,36.51
2023-05-05T02:45:23.415Z,36.80
2023-05-05T02:47:52.169Z,36.45
2023-05-05T02:50:19.520Z,36.51
2023-05-05T02:52:47.112Z,36.73
2023-05-05T02:55:15.197Z,36.77
2023-05-05T02:57:49.928Z,36.43
2023-05-05T03:00:27.772Z,37.57
2023-05-05T03:03:08.972Z,37.58
2023-05-05T03:05:42.794Z,37.33
2023-05-05T03:08:16.211Z,37.09
2023-05-05T03:10:47.758Z,37.67
2023-05-05T03:13:20.584Z,36.89
2023-05-05T03:15:51.717Z,37.21
2023-05-05T03:18:24.418Z,37.26
2023-05-05T03:20:52.514Z,36.88
2023-05-05T03:23:20.367Z,37.29
2023-05-05T03:25:49.070Z,36.93
2023-05-05T03:28:17.410Z,37.14
2023-05-05T03:30:44.586Z,37.47
2023-05-05T03:33:11.798Z,37.32
2023-05-05T03:35:40.392Z,37.26
2023-05-05T03:38:07.474Z,36.80
2023-05-05T03:40:43.523Z,37.16
2023-05-05T03:43:12.016Z,36.73
2023-05-05T03:45:39.285Z,36.99
2023-05-05T03:48:06.907Z,37.45
2023-05-05T03:50:34.194Z,37.82
2023-05-05T03:53:02.810Z,37.34
2023-05-05T03:55:29.930Z,37.09
2023-05-05T03:57:57.043Z,37.10
2023-05-05T04:00:24.190Z,37.38
2023-05-05T04:02:51.371Z,37.42
2023-05-05T04:05:18.735Z,37.50
2023-05-05T04:07:45.933Z,37.62
2023-05-05T04:10:14.553Z,37.88
2023-05-05T04:12:41.657Z,38.34
2023-05-05T04:15:09.997Z,37.12
2023-05-05T04:17:37.120Z,38.01
2023-05-05T04:20:05.183Z,37.83
2023-05-05T04:22:32.350Z,37.72
2023-05-05T04:24:59.504Z,37.89
2023-05-05T04:27:28.154Z,38.02
2023-05-05T04:29:55.248Z,38.12
2023-05-05T04:32:22.747Z,38.07
2023-05-05T04:34:50.036Z,37.75
2023-05-05T04:37:17.243Z,38.21
2023-05-05T04:39:44.503Z,37.78
2023-05-05T04:42:11.590Z,37.69
2023-05-05T04:44:40.178Z,37.27
2023-05-05T04:47:07.295Z,37.18
2023-05-05T04:49:34.394Z,37.70
2023-05-05T04:52:01.558Z,37.52
2023-05-05T04:54:28.896Z,37.45
2023-05-05T04:56:55.952Z,37.85
2023-05-05T04:59:23.134Z,37.77
2023-05-05T05:01:51.819Z,37.81
2023-05-05T05:04:19.080Z,38.26
2023-05-05T05:06:46.230Z,37.82
2023-05-05T05:09:13.479Z,38.29
2023-05-05T05:11:40.797Z,38.27
2023-05-05T05:14:08.225Z,37.95
2023-05-05T05:16:35.404Z,38.30
2023-05-05T05:19:04.079Z,37.75
2023-05-05T05:21:31.215Z,38.26
2023-05-05T05:23:58.429Z,37.90
2023-05-05T05:26:25.815Z,37.77
2023-05-05T05:28:52.978Z,36.81
2023-05-05T05:31:20.490Z,36.36
2023-05-05T05:33:47.612Z,36.43
2023-05-05T05:36:16.201Z,35.80
2023-05-05T05:38:43.368Z,36.64
2023-05-05T05:41:10.488Z,37.04
2023-05-05T05:43:37.652Z,37.43
2023-05-05T05:46:07.509Z,37.62
2023-05-05T05:48:36.241Z,37.34
2023-05-05T05:51:03.481Z,37.45
2023-05-05T05:53:31.998Z,37.38
2023-05-05T05:55:59.147Z,38.05
2023-05-05T05:58:26.327Z,37.98
2023-05-05T06:00:53.549Z,37.93
2023-05-05T06:03:20.731Z,38.41
2023-05-05T06:05:48.113Z,38.63
2023-05-05T06:08:15.369Z,38.26
2023-05-05T06:10:44.012Z,38.13
2023-05-05T06:13:11.510Z,37.61
2023-05-05T06:15:38.862Z,37.86
2023-05-05T06:18:06.104Z,38.37
2023-05-05T06:20:33.352Z,37.85
2023-05-05T06:23:00.435Z,37.65
2023-05-05T06:25:27.608Z,37.60
2023-05-05T06:27:56.195Z,37.20
2023-05-05T06:30:23.466Z,37.16
2023-05-05T06:32:50.702Z,37.03
2023-05-05T06:35:17.987Z,36.88
2023-05-05T06:37:45.157Z,35.87
2023-05-05T06:40:13.134Z,35.33
2023-05-05T06:42:40.269Z,34.70
2023-05-05T06:45:10.176Z,34.37
2023-05-05T06:47:37.427Z,34.10
2023-05-05T06:50:05.420Z,33.33
2023-05-05T06:52:32.633Z,32.32
2023-05-05T06:54:59.750Z,32.53
2023-05-05T06:57:26.938Z,33.20
2023-05-05T06:59:54.163Z,33.83
2023-05-05T07:02:24.018Z,33.64
2023-05-05T07:04:52.721Z,33.77
2023-05-05T07:07:19.923Z,33.57
2023-05-05T07:09:47.164Z,33.45
2023-05-05T07:12:14.308Z,33.57
2023-05-05T07:14:41.518Z,33.30
2023-05-05T07:17:08.609Z,33.37
2023-05-05T07:19:37.240Z,33.68
2023-05-05T07:22:04.441Z,34.20
2023-05-05T07:24:31.704Z,33.99
2023-05-05T07:26:59.131Z,33.27
2023-05-05T07:29:27.583Z,33.75
2023-05-05T07:31:54.707Z,32.88
2023-05-05T07:34:21.859Z,32.99
2023-05-05T07:36:50.648Z,31.24
2023-05-05T07:39:17.687Z,30.45
2023-05-05T07:41:44.857Z,32.03
2023-05-05T07:44:12.042Z,31.13
2023-05-05T07:46:39.178Z,32.65
2023-05-05T07:49:06.286Z,32.63
2023-05-05T07:51:34.610Z,31.83
2023-05-05T07:54:04.267Z,30.28
2023-05-05T07:56:31.521Z,29.53
2023-05-05T07:58:58.733Z,30.88
2023-05-05T08:01:25.939Z,30.58
2023-05-05T08:03:53.177Z,29.77
2023-05-05T08:06:21.086Z,30.23
2023-05-05T08:08:48.674Z,29.97
2023-05-05T08:11:17.777Z,28.57
2023-05-05T08:13:44.917Z,27.77
2023-05-05T08:16:12.197Z,28.49
2023-05-05T08:18:39.921Z,27.79
2023-05-05T08:21:09.503Z,27.74
2023-05-05T08:23:37.979Z,29.03
2023-05-05T08:26:07.015Z,30.14
2023-05-05T08:28:37.016Z,29.29
2023-05-05T08:31:04.547Z,29.97
2023-05-05T08:33:31.820Z,29.71
2023-05-05T08:35:59.206Z,28.60
2023-05-05T08:38:26.328Z,29.83
2023-05-05T08:40:53.475Z,30.16
2023-05-05T08:43:21.156Z,29.44
2023-05-05T08:45:50.879Z,29.37
2023-05-05T08:48:19.940Z,27.29
2023-05-05T08:50:55.903Z,28.04
2023-05-05T08:53:39.020Z,26.70
2023-05-05T08:56:08.589Z,28.30
2023-05-05T08:58:37.532Z,24.86
2023-05-05T09:01:08.189Z,28.16
2023-05-05T09:03:37.973Z,28.41
2023-05-05T09:06:05.395Z,27.88
2023-05-05T09:08:33.399Z,24.14
2023-05-05T09:11:01.723Z,26.34
2023-05-05T09:13:30.818Z,26.10
2023-05-05T09:15:57.988Z,27.23
2023-05-05T09:18:27.087Z,26.53
2023-05-05T09:20:54.255Z,26.88
2023-05-05T09:23:22.005Z,25.06
2023-05-05T09:26:04.098Z,27.69
2023-05-05T09:28:31.843Z,27.38
2023-05-05T09:31:13.387Z,25.99
2023-05-05T09:33:42.295Z,28.07
2023-05-05T09:36:09.582Z,27.60
2023-05-05T09:38:37.077Z,27.49
2023-05-05T09:41:04.557Z,27.83
2023-05-05T09:43:50.460Z,28.15
2023-05-05T09:46:17.728Z,26.02
2023-05-05T09:48:46.259Z,27.80
2023-05-05T09:51:13.615Z,26.90
2023-05-05T09:53:42.095Z,27.03
2023-05-05T09:56:09.548Z,26.78
2023-05-05T09:58:36.775Z,28.08
2023-05-05T10:01:04.096Z,27.44
2023-05-05T10:03:31.411Z,28.57
2023-05-05T10:06:00.118Z,28.11
2023-05-05T10:08:29.392Z,28.40
2023-05-05T10:10:59.294Z,27.98
2023-05-05T10:13:27.921Z,28.47
2023-05-05T10:15:57.452Z,28.08
2023-05-05T10:18:26.453Z,27.34
2023-05-05T10:21:00.228Z,26.46
2023-05-05T10:23:36.153Z,26.59
2023-05-05T10:26:07.874Z,28.49
2023-05-05T10:28:44.742Z,27.69
2023-05-05T10:31:26.004Z,28.99
2023-05-05T10:34:00.607Z,28.75
2023-05-05T10:36:30.196Z,27.22
2023-05-05T10:39:00.164Z,28.31
2023-05-05T10:41:28.860Z,28.30
2023-05-05T10:43:56.762Z,27.32
2023-05-05T10:46:25.840Z,26.37
2023-05-05T10:49:02.900Z,27.28
2023-05-05T10:51:44.434Z,26.23
2023-05-05T10:54:21.566Z,26.44
2023-05-05T10:56:49.444Z,25.62
2023-05-05T10:59:44.413Z,25.50
2023-05-05T11:02:22.261Z,25.05
2023-05-05T11:05:05.026Z,25.77
2023-05-05T11:07:33.955Z,25.39
2023-05-05T11:10:02.425Z,25.30
2023-05-05T11:12:30.218Z,25.32
2023-05-05T11:15:34.845Z,24.94
2023-05-05T11:18:03.924Z,23.96
2023-05-05T11:21:11.310Z,25.17
2023-05-05T11:23:39.910Z,24.65
2023-05-05T11:26:07.020Z,24.48
2023-05-05T11:28:35.594Z,25.92
2023-05-05T11:31:20.059Z,24.23
2023-05-05T11:33:47.855Z,23.10
2023-05-05T11:36:17.519Z,25.56
2023-05-05T11:38:57.566Z,25.29
2023-05-05T11:41:49.106Z,25.09
2023-05-05T11:44:17.795Z,25.28
2023-05-05T11:47:17.795Z,25.45
2023-05-05T11:49:44.939Z,24.24
2023-05-05T11:52:14.321Z,23.80
2023-05-05T11:54:44.256Z,24.82
2023-05-05T11:57:11.395Z,24.25
2023-05-05T11:59:50.465Z,25.87
2023-05-05T12:02:18.024Z,25.53
2023-05-05T12:04:45.623Z,23.61
2023-05-05T12:07:16.281Z,24.25
2023-05-05T12:09:46.374Z,25.19
2023-05-05T12:12:14.408Z,24.61
2023-05-05T12:14:49.852Z,25.13
2023-05-05T12:17:17.296Z,23.66
2023-05-05T12:19:53.471Z,25.18
2023-05-05T12:22:23.274Z,25.54
2023-05-05T12:24:59.850Z,25.00
2023-05-05T12:27:28.786Z,26.77
2023-05-05T12:29:57.631Z,26.47
2023-05-05T12:32:27.309Z,26.53
2023-05-05T12:34:56.234Z,24.90
2023-05-05T12:37:25.594Z,25.53
2023-05-05T12:39:53.418Z,24.57
2023-05-05T12:42:23.067Z,24.51
2023-05-05T12:44:50.245Z,25.06
2023-05-05T12:47:30.686Z,25.68
2023-05-05T12:49:59.504Z,25.02
2023-05-05T12:52:41.705Z,24.75
2023-05-05T12:55:10.107Z,26.82
2023-05-05T12:57:39.305Z,25.95
2023-05-05T13:00:15.324Z,26.48
2023-05-05T13:02:42.663Z,26.59
2023-05-05T13:05:10.175Z,26.40
2023-05-05T13:07:50.884Z,27.55
2023-05-05T13:10:18.138Z,28.17
2023-05-05T13:12:46.883Z,26.27
2023-05-05T13:15:14.319Z,26.59
2023-05-05T13:17:41.584Z,26.81
2023-05-05T13:20:10.130Z,26.45
2023-05-05T13:22:38.351Z,25.98
2023-05-05T13:25:06.202Z,27.75
2023-05-05T13:27:33.643Z,26.38
2023-05-05T13:30:02.221Z,26.69
2023-05-05T13:32:29.449Z,28.21
2023-05-05T13:34:56.998Z,26.49
2023-05-05T13:37:24.324Z,26.39
2023-05-05T13:39:51.494Z,28.11
2023-05-05T13:42:18.559Z,27.99
2023-05-05T13:44:45.637Z,27.01
2023-05-05T13:47:14.299Z,27.63
2023-05-05T13:49:41.478Z,27.63
2023-05-05T13:52:08.613Z,27.01
2023-05-05T13:54:35.917Z,26.93
2023-05-05T13:57:03.231Z,26.65
2023-05-05T13:59:30.356Z,27.16
2023-05-05T14:01:57.477Z,27.89
2023-05-05T14:04:26.479Z,26.54
2023-05-05T14:06:53.761Z,26.20
2023-05-05T14:09:21.037Z,27.75
2023-05-05T14:11:48.328Z,27.05
2023-05-05T14:14:15.540Z,26.97
2023-05-05T14:16:42.811Z,27.09
2023-05-05T14:19:10.056Z,26.88
2023-05-05T14:21:39.082Z,28.58
2023-05-05T14:24:07.029Z,25.73
2023-05-05T14:26:34.153Z,27.64
2023-05-05T14:29:01.307Z,26.34
2023-05-05T14:31:28.488Z,28.21
2023-05-05T14:33:55.592Z,27.00
2023-05-05T14:36:23.151Z,27.71
2023-05-05T14:38:51.855Z,26.21
2023-05-05T14:41:19.187Z,27.10
2023-05-05T14:43:46.452Z,27.06
2023-05-05T14:46:13.754Z,28.07
2023-05-05T14:48:41.171Z,25.63
2023-05-05T14:51:08.270Z,27.70
2023-05-05T14:53:35.548Z,25.61
2023-05-05T14:56:04.356Z,27.36
2023-05-05T14:58:31.690Z,27.50
2023-05-05T15:00:59.142Z,27.24
2023-05-05T15:03:26.786Z,26.14
2023-05-05T15:05:54.203Z,26.39
2023-05-05T15:08:21.413Z,27.87
2023-05-05T15:10:48.672Z,25.74
2023-05-05T15:13:17.435Z,26.64
2023-05-05T15:15:44.814Z,26.89
2023-05-05T15:18:12.338Z,26.73
2023-05-05T15:20:39.517Z,26.42
2023-05-05T15:23:06.713Z,27.38
2023-05-05T15:25:34.116Z,27.87
2023-05-05T15:28:01.332Z,26.96
2023-05-05T15:30:30.017Z,28.06
2023-05-05T15:32:57.215Z,27.47
2023-05-05T15:35:24.465Z,27.54
2023-05-05T15:37:51.726Z,26.50
2023-05-05T15:40:18.889Z,25.88
2023-05-05T15:42:46.073Z,25.81
2023-05-05T15:45:13.393Z,25.71
2023-05-05T15:47:42.128Z,26.14
2023-05-05T15:50:10.168Z,25.97
2023-05-05T15:52:37.365Z,25.63
2023-05-05T15:55:05.048Z,25.13
2023-05-05T15:57:33.339Z,25.39
2023-05-05T16:00:00.597Z,25.68
2023-05-05T16:02:28.382Z,26.13
2023-05-05T16:04:57.153Z,26.33
2023-05-05T16:07:24.396Z,26.83
2023-05-05T16:09:51.552Z,26.85
2023-05-05T16:12:19.147Z,25.91
2023-05-05T16:14:46.307Z,26.58
2023-05-05T16:17:13.546Z,27.21
2023-05-05T16:19:40.745Z,26.92
2023-05-05T16:22:09.444Z,27.67
2023-05-05T16:24:36.645Z,27.47
2023-05-05T16:27:03.872Z,27.34
2023-05-05T16:29:31.081Z,26.85
2023-05-05T16:31:58.276Z,27.30
2023-05-05T16:34:25.562Z,27.39
2023-05-05T16:36:52.686Z,28.85
2023-05-05T16:39:21.214Z,29.17
2023-05-05T16:41:48.409Z,29.67
2023-05-05T16:44:15.778Z,29.68
2023-05-05T16:46:42.972Z,29.41
2023-05-05T16:49:10.585Z,29.63
2023-05-05T16:51:37.765Z,29.57
2023-05-05T16:54:05.098Z,29.85
2023-05-05T16:56:33.926Z,29.42
2023-05-05T16:59:01.304Z,29.46
2023-05-05T17:01:28.632Z,30.10
2023-05-05T17:03:56.149Z,29.43
2023-05-05T17:06:23.407Z,29.59
2023-05-05T17:08:50.728Z,29.45
2023-05-05T17:11:17.971Z,28.83
2023-05-05T17:13:46.605Z,29.38
2023-05-05T17:16:14.515Z,32.20
2023-05-05T17:18:41.797Z,31.23
2023-05-05T17:21:08.906Z,31.32
2023-05-05T17:23:36.016Z,35.38
2023-05-05T17:26:03.386Z,36.61
2023-05-05T17:28:30.607Z,35.50
2023-05-05T17:30:59.249Z,35.26
2023-05-05T17:33:26.448Z,35.06
2023-05-05T17:35:54.966Z,35.29
2023-05-05T17:38:22.244Z,33.51
2023-05-05T17:40:49.484Z,34.46
2023-05-05T17:43:16.708Z,36.30
2023-05-05T17:45:43.872Z,37.76
2023-05-05T17:48:12.588Z,34.93
2023-05-05T17:50:41.340Z,37.93
2023-05-05T17:53:09.847Z,37.93
2023-05-05T17:55:37.386Z,37.84
2023-05-05T17:58:04.466Z,37.21
2023-05-05T18:00:31.634Z,35.85
2023-05-05T18:02:58.839Z,37.00
2023-05-05T18:05:27.520Z,37.03
2023-05-05T18:07:54.718Z,35.67
2023-05-05T18:10:22.033Z,36.78
2023-05-05T18:12:49.567Z,35.47
2023-05-05T18:15:16.991Z,35.38
2023-05-05T18:17:44.169Z,34.71
2023-05-05T18:20:12.217Z,35.58
2023-05-05T18:22:40.976Z,34.70
2023-05-05T18:25:09.556Z,34.55
2023-05-05T18:27:37.053Z,34.04
2023-05-05T18:30:04.990Z,34.95
2023-05-05T18:32:32.667Z,33.72
2023-05-05T18:34:59.993Z,34.18
2023-05-05T18:37:27.249Z,34.95
2023-05-05T18:39:55.949Z,31.96
2023-05-05T18:42:23.238Z,33.39
2023-05-05T18:44:50.570Z,32.61
2023-05-05T18:47:17.809Z,32.73
2023-05-05T18:49:45.012Z,33.33
2023-05-05T18:52:12.253Z,32.99
2023-05-05T18:54:39.451Z,33.01
2023-05-05T18:57:08.132Z,33.90
2023-05-05T18:59:35.273Z,33.44
2023-05-05T19:02:02.508Z,33.14
2023-05-05T19:04:31.801Z,33.46
2023-05-05T19:06:59.260Z,32.63
2023-05-05T19:09:26.520Z,32.62
2023-05-05T19:11:53.803Z,32.97
2023-05-05T19:14:23.783Z,32.37
2023-05-05T19:16:51.201Z,31.82
2023-05-05T19:19:18.757Z,32.43
2023-05-05T19:21:45.885Z,31.92
2023-05-05T19:24:13.167Z,30.89
2023-05-05T19:26:40.445Z,31.25
2023-05-05T19:29:07.730Z,32.65
2023-05-05T19:31:36.713Z,30.83
2023-05-05T19:34:05.525Z,32.14
2023-05-05T19:36:33.889Z,31.75
2023-05-05T19:39:02.093Z,31.22
2023-05-05T19:41:29.712Z,30.61
2023-05-05T19:43:56.866Z,31.72
2023-05-05T19:46:24.732Z,31.90
2023-05-05T19:48:53.619Z,31.93
2023-05-05T19:51:20.997Z,31.10
2023-05-05T19:53:48.237Z,31.91
2023-05-05T19:56:15.642Z,32.41
2023-05-05T19:58:56.501Z,32.46
2023-05-05T20:01:23.780Z,32.41
2023-05-05T20:03:51.435Z,31.84
2023-05-05T20:06:20.493Z,32.29
2023-05-05T20:08:47.707Z,31.49
2023-05-05T20:11:16.521Z,32.12
2023-05-05T20:13:44.083Z,32.13
2023-05-05T20:16:11.305Z,32.51
2023-05-05T20:18:38.683Z,33.28
2023-05-05T20:21:07.779Z,33.39
2023-05-05T20:23:36.435Z,33.08
2023-05-05T20:26:04.584Z,33.40
2023-05-05T20:28:32.947Z,33.07
2023-05-05T20:31:01.022Z,33.60
2023-05-05T20:33:30.281Z,34.45
2023-05-05T20:35:57.933Z,34.64
2023-05-05T20:38:25.341Z,34.33
2023-05-05T20:40:54.253Z,34.03
2023-05-05T20:43:21.542Z,33.96
2023-05-05T20:45:49.112Z,34.35
2023-05-05T20:48:16.489Z,33.94
2023-05-05T20:50:43.697Z,33.86
2023-05-05T20:53:12.650Z,34.17
2023-05-05T20:55:40.994Z,34.43
2023-05-05T20:58:09.920Z,34.45
2023-05-05T21:00:37.920Z,34.48
2023-05-05T21:03:05.374Z,34.79
2023-05-05T21:05:33.397Z,35.13
2023-05-05T21:08:01.318Z,35.36
2023-05-05T21:10:28.885Z,35.14
2023-05-05T21:12:56.276Z,35.20
2023-05-05T21:15:25.428Z,34.80
2023-05-05T21:17:52.780Z,35.27
2023-05-05T21:20:20.247Z,35.17
2023-05-05T21:22:47.720Z,35.28
2023-05-05T21:25:17.507Z,35.14
2023-05-05T21:27:45.075Z,34.88
2023-05-05T21:30:13.463Z,35.07
2023-05-05T21:32:42.568Z,34.96
2023-05-05T21:35:10.474Z,34.63
2023-05-05T21:37:38.432Z,35.69
2023-05-05T21:40:07.244Z,35.48
2023-05-05T21:42:34.548Z,35.94
2023-05-05T21:45:01.825Z,35.93
2023-05-05T21:47:29.216Z,35.48
2023-05-05T21:49:58.086Z,35.00
2023-05-05T21:52:25.616Z,35.68
2023-05-05T21:54:52.772Z,35.89
2023-05-05T21:57:20.008Z,36.05
2023-05-05T21:59:47.491Z,36.16
2023-05-05T22:02:14.786Z,35.75
2023-05-05T22:04:42.081Z,35.21
2023-05-05T22:07:10.709Z,36.43
2023-05-05T22:09:37.828Z,36.01
2023-05-05T22:12:05.872Z,36.14
2023-05-05T22:14:33.127Z,36.65
2023-05-05T22:17:00.206Z,37.04
2023-05-05T22:19:27.387Z,37.38
2023-05-05T22:21:54.557Z,36.61
2023-05-05T22:24:23.274Z,35.91
2023-05-05T22:26:50.550Z,36.06
2023-05-05T22:29:17.808Z,37.75
2023-05-05T22:31:45.001Z,37.64
2023-05-05T22:34:12.155Z,38.17
2023-05-05T22:36:39.409Z,38.50
2023-05-05T22:39:06.622Z,38.29
2023-05-05T22:41:35.284Z,38.73
2023-05-05T22:44:02.577Z,38.28
2023-05-05T22:46:29.855Z,38.60
2023-05-05T22:48:57.028Z,38.77
2023-05-05T22:51:24.204Z,38.63
2023-05-05T22:53:51.363Z,38.72
2023-05-05T22:56:18.660Z,38.49
2023-05-05T22:58:47.264Z,38.40
2023-05-05T23:01:14.649Z,38.55
2023-05-05T23:03:41.944Z,39.04
2023-05-05T23:06:10.286Z,38.92
2023-05-05T23:08:37.419Z,38.80
2023-05-05T23:11:04.872Z,39.17
2023-05-05T23:13:32.247Z,38.86
2023-05-05T23:16:00.729Z,39.10
2023-05-05T23:18:27.843Z,39.33
2023-05-05T23:20:55.384Z,39.41
2023-05-05T23:23:22.493Z,39.29
2023-05-05T23:25:49.633Z,39.23
2023-05-05T23:28:17.069Z,39.29
2023-05-05T23:30:44.422Z,39.55
2023-05-05T23:33:13.114Z,39.32
2023-05-05T23:35:40.249Z,38.95
2023-05-05T23:38:07.382Z,38.77
2023-05-05T23:40:34.624Z,38.98
2023-05-05T23:43:01.774Z,38.82
2023-05-05T23:45:29.044Z,39.31
2023-05-05T23:47:56.839Z,39.45
2023-05-05T23:50:25.472Z,39.31
2023-05-05T23:52:52.631Z,39.18
2023-05-05T23:55:20.086Z,38.90
2023-05-05T23:57:47.283Z,39.02
